Multan International Airport
OPMT : now visible

Airfield :











YOU CAN JOIN US ON...

 
LOGIN :

Register | Disclaimer

   EN    FR    IT 

 









Legend :    VFR   Marginal VFR   IFR   Intensive IFR   Very Intensive IFR
Visi :
Ceiling :
>= 8 km
>= 3000ft
5 to 8 km
1000 to 3000 ft
1500m to 5 km
500 to 1000 ft
800 to 1500m
200 to 500 ft
< 800m
< 200 ft
Symbols :   Thunderstorms  Fog  Heavy snow  Heavy precipitations  Wind > 20 kt






- Airport Elevation : 403 ft
- IATA code : MUX


OPMT - Multan International

CURRENT METAR :
  • 250030Z 18004KT 4000 FU SCT100 32/26 Q0991 NOSIG

EXPIRED METARs :
  • 250000Z 18008KT 4000 FU SCT100 32/26 Q0991 NOSIG
  • 242330Z 18008KT 4000 FU BKN100 32/25 Q0991 NOSIG
  • 242300Z 18008KT 4000 FU BKN100 32/25 Q0991 NOSIG
  • 242230Z 18006KT 4000 FU BKN100 32/25 Q0991 NOSIG
  • 242200Z 23008KT 4000 FU SCT100 32/25 Q1001 NOSIG
  • 242130Z 23008KT 4000 FU SCT100 32/25 Q0991 NOSIG
  • 242100Z 23008KT 4000 FU SCT100 32/25 Q0991 NOSIG
  • 242030Z 18012KT 4000 FU BKN100 33/25 Q0991 NOSIG
  • 242000Z 18012KT 4000 FU BKN100 33/25 Q0991 NOSIG

TAF TAF OPMT
Valid from the 25 at 00:00 until the 26 at 06:00 UTC


242300Z 2500/2606 23010KT 4000 FU FEW040 SCT100 TX41/2510Z TN30/2501Z
PROB30
TEMPO 2511/2515 31530KT 0800 DSTS/RA FEW030CB SCT040 BKN100
OPLR FIR / Asia



MET'MAP, your aeronautical weather chart ! - Copyright ORBIFLY December 2007 - Disclaimer

ORBIFLY MET'MAP TEAM :

Programming & Development : Alexandra Zaïnal
Original concept : Baudouin d'Aumeries
Technical & hardware support : Manuel Goepfert
Assistance : Marc-Olivier Méhu




SOURCES & CREDITS :

   NOAA       Earth
Advisory